sensor_id;sensor_type;location;lat;lon;timestamp;temperature;humidity
40504;DHT22;42292;49.048;8.374;2022-07-23T00:00:42;24.70;99.90
40504;DHT22;42292;49.048;8.374;2022-07-23T00:03:12;24.70;99.90
40504;DHT22;42292;49.048;8.374;2022-07-23T00:05:38;24.90;99.90
40504;DHT22;42292;49.048;8.374;2022-07-23T00:08:05;24.90;99.90
40504;DHT22;42292;49.048;8.374;2022-07-23T00:10:30;24.80;99.90
40504;DHT22;42292;49.048;8.374;2022-07-23T00:12:59;24.80;99.90
40504;DHT22;42292;49.048;8.374;2022-07-23T00:15:25;24.90;99.90
40504;DHT22;42292;49.048;8.374;2022-07-23T00:17:50;24.90;99.90
40504;DHT22;42292;49.048;8.374;2022-07-23T00:20:21;24.90;99.90
40504;DHT22;42292;49.048;8.374;2022-07-23T00:22:51;24.80;99.90
40504;DHT22;42292;49.048;8.374;2022-07-23T00:25:17;24.80;99.90
40504;DHT22;42292;49.048;8.374;2022-07-23T00:27:43;24.90;99.90
40504;DHT22;42292;49.048;8.374;2022-07-23T00:30:11;24.80;99.90
40504;DHT22;42292;49.048;8.374;2022-07-23T00:32:54;24.70;99.90
40504;DHT22;42292;49.048;8.374;2022-07-23T00:35:22;24.50;99.90
40504;DHT22;42292;49.048;8.374;2022-07-23T00:37:48;24.60;99.90
40504;DHT22;42292;49.048;8.374;2022-07-23T00:40:19;24.50;99.90
40504;DHT22;42292;49.048;8.374;2022-07-23T00:42:47;24.60;99.90
40504;DHT22;42292;49.048;8.374;2022-07-23T00:45:15;24.50;99.90
40504;DHT22;42292;49.048;8.374;2022-07-23T00:47:43;24.50;99.90
40504;DHT22;42292;49.048;8.374;2022-07-23T00:50:15;24.40;99.90
40504;DHT22;42292;49.048;8.374;2022-07-23T00:52:43;24.20;99.90
40504;DHT22;42292;49.048;8.374;2022-07-23T00:55:12;24.30;99.90
40504;DHT22;42292;49.048;8.374;2022-07-23T00:57:41;24.30;99.90
40504;DHT22;42292;49.048;8.374;2022-07-23T01:00:10;24.20;99.90
40504;DHT22;42292;49.048;8.374;2022-07-23T01:02:37;24.10;99.90
40504;DHT22;42292;49.048;8.374;2022-07-23T01:05:03;24.10;99.90
40504;DHT22;42292;49.048;8.374;2022-07-23T01:07:29;24.00;99.90
40504;DHT22;42292;49.048;8.374;2022-07-23T01:09:55;24.00;99.90
40504;DHT22;42292;49.048;8.374;2022-07-23T01:12:21;23.80;99.90
40504;DHT22;42292;49.048;8.374;2022-07-23T01:14:56;23.80;99.90
40504;DHT22;42292;49.048;8.374;2022-07-23T01:17:25;23.80;99.90
40504;DHT22;42292;49.048;8.374;2022-07-23T01:19:51;23.70;99.90
40504;DHT22;42292;49.048;8.374;2022-07-23T01:22:19;23.70;99.90
40504;DHT22;42292;49.048;8.374;2022-07-23T01:24:46;23.60;99.90
40504;DHT22;42292;49.048;8.374;2022-07-23T01:27:12;23.70;99.90
40504;DHT22;42292;49.048;8.374;2022-07-23T01:29:38;23.60;99.90
40504;DHT22;42292;49.048;8.374;2022-07-23T01:32:04;23.50;99.90
40504;DHT22;42292;49.048;8.374;2022-07-23T01:34:32;23.50;99.90
40504;DHT22;42292;49.048;8.374;2022-07-23T01:37:02;23.50;99.90
40504;DHT22;42292;49.048;8.374;2022-07-23T01:39:28;23.50;99.90
40504;DHT22;42292;49.048;8.374;2022-07-23T01:41:56;23.40;99.90
40504;DHT22;42292;49.048;8.374;2022-07-23T01:44:21;23.20;99.90
40504;DHT22;42292;49.048;8.374;2022-07-23T01:46:49;23.00;99.90
40504;DHT22;42292;49.048;8.374;2022-07-23T01:49:15;22.90;99.90
40504;DHT22;42292;49.048;8.374;2022-07-23T01:51:43;22.90;99.90
40504;DHT22;42292;49.048;8.374;2022-07-23T01:54:27;22.90;99.90
40504;DHT22;42292;49.048;8.374;2022-07-23T01:56:56;22.80;99.90
40504;DHT22;42292;49.048;8.374;2022-07-23T01:59:22;23.00;99.90
40504;DHT22;42292;49.048;8.374;2022-07-23T02:01:47;22.80;99.90
40504;DHT22;42292;49.048;8.374;2022-07-23T02:04:21;22.90;99.90
40504;DHT22;42292;49.048;8.374;2022-07-23T02:06:47;23.00;99.90
40504;DHT22;42292;49.048;8.374;2022-07-23T02:09:15;23.10;99.90
40504;DHT22;42292;49.048;8.374;2022-07-23T02:11:41;22.70;99.90
40504;DHT22;42292;49.048;8.374;2022-07-23T02:14:10;22.50;99.90
40504;DHT22;42292;49.048;8.374;2022-07-23T02:16:38;22.30;99.90
40504;DHT22;42292;49.048;8.374;2022-07-23T02:19:06;22.20;99.90
40504;DHT22;42292;49.048;8.374;2022-07-23T02:21:36;22.10;99.90
40504;DHT22;42292;49.048;8.374;2022-07-23T02:24:02;22.10;99.90
40504;DHT22;42292;49.048;8.374;2022-07-23T02:26:27;22.00;99.90
40504;DHT22;42292;49.048;8.374;2022-07-23T02:28:53;22.00;99.90
40504;DHT22;42292;49.048;8.374;2022-07-23T02:31:21;22.00;99.90
40504;DHT22;42292;49.048;8.374;2022-07-23T02:33:46;21.90;99.90
40504;DHT22;42292;49.048;8.374;2022-07-23T02:36:12;21.90;99.90
40504;DHT22;42292;49.048;8.374;2022-07-23T02:38:37;21.90;99.90
40504;DHT22;42292;49.048;8.374;2022-07-23T02:41:03;21.90;99.90
40504;DHT22;42292;49.048;8.374;2022-07-23T02:43:29;22.00;99.90
40504;DHT22;42292;49.048;8.374;2022-07-23T02:45:57;22.10;99.90
40504;DHT22;42292;49.048;8.374;2022-07-23T02:48:28;22.00;99.90
40504;DHT22;42292;49.048;8.374;2022-07-23T02:50:56;22.10;99.90
40504;DHT22;42292;49.048;8.374;2022-07-23T02:53:23;22.10;99.90
40504;DHT22;42292;49.048;8.374;2022-07-23T02:55:48;22.10;99.90
40504;DHT22;42292;49.048;8.374;2022-07-23T02:58:14;22.20;99.90
40504;DHT22;42292;49.048;8.374;2022-07-23T03:00:42;22.30;99.90
40504;DHT22;42292;49.048;8.374;2022-07-23T03:03:08;22.30;99.90
40504;DHT22;42292;49.048;8.374;2022-07-23T03:05:34;22.40;99.90
40504;DHT22;42292;49.048;8.374;2022-07-23T03:08:02;22.50;99.90
40504;DHT22;42292;49.048;8.374;2022-07-23T03:10:30;22.60;99.90
40504;DHT22;42292;49.048;8.374;2022-07-23T03:12:57;22.60;99.90
40504;DHT22;42292;49.048;8.374;2022-07-23T03:15:23;22.50;99.90
40504;DHT22;42292;49.048;8.374;2022-07-23T03:17:53;22.60;99.90
40504;DHT22;42292;49.048;8.374;2022-07-23T03:20:19;22.60;99.90
40504;DHT22;42292;49.048;8.374;2022-07-23T03:22:44;22.80;99.90
40504;DHT22;42292;49.048;8.374;2022-07-23T03:25:10;22.90;99.90
40504;DHT22;42292;49.048;8.374;2022-07-23T03:27:36;23.00;99.90
40504;DHT22;42292;49.048;8.374;2022-07-23T03:30:04;22.90;99.90
40504;DHT22;42292;49.048;8.374;2022-07-23T03:32:30;22.70;99.90
40504;DHT22;42292;49.048;8.374;2022-07-23T03:34:57;22.70;99.90
40504;DHT22;42292;49.048;8.374;2022-07-23T03:37:25;22.70;99.90
40504;DHT22;42292;49.048;8.374;2022-07-23T03:39:53;22.50;99.90
40504;DHT22;42292;49.048;8.374;2022-07-23T03:42:21;22.40;99.90
40504;DHT22;42292;49.048;8.374;2022-07-23T03:44:47;22.40;99.90
40504;DHT22;42292;49.048;8.374;2022-07-23T03:47:12;22.40;99.90
40504;DHT22;42292;49.048;8.374;2022-07-23T03:49:42;22.50;99.90
40504;DHT22;42292;49.048;8.374;2022-07-23T03:52:10;22.30;99.90
40504;DHT22;42292;49.048;8.374;2022-07-23T03:54:40;22.20;99.90
40504;DHT22;42292;49.048;8.374;2022-07-23T03:57:08;22.30;99.90
40504;DHT22;42292;49.048;8.374;2022-07-23T03:59:36;22.60;99.90
40504;DHT22;42292;49.048;8.374;2022-07-23T04:02:04;22.60;99.90
40504;DHT22;42292;49.048;8.374;2022-07-23T04:04:32;22.60;99.90
40504;DHT22;42292;49.048;8.374;2022-07-23T04:06:57;22.60;99.90
40504;DHT22;42292;49.048;8.374;2022-07-23T04:09:25;22.50;99.90
40504;DHT22;42292;49.048;8.374;2022-07-23T04:11:53;22.50;99.90
40504;DHT22;42292;49.048;8.374;2022-07-23T04:14:23;22.50;99.90
40504;DHT22;42292;49.048;8.374;2022-07-23T04:16:51;22.40;99.90
40504;DHT22;42292;49.048;8.374;2022-07-23T04:19:17;22.30;99.90
40504;DHT22;42292;49.048;8.374;2022-07-23T04:21:42;22.20;99.90
40504;DHT22;42292;49.048;8.374;2022-07-23T04:24:08;22.10;99.90
40504;DHT22;42292;49.048;8.374;2022-07-23T04:26:36;22.20;99.90
40504;DHT22;42292;49.048;8.374;2022-07-23T04:29:03;22.20;99.90
40504;DHT22;42292;49.048;8.374;2022-07-23T04:31:34;22.10;99.90
40504;DHT22;42292;49.048;8.374;2022-07-23T04:34:02;22.00;99.90
40504;DHT22;42292;49.048;8.374;2022-07-23T04:36:27;21.80;99.90
40504;DHT22;42292;49.048;8.374;2022-07-23T04:38:56;21.50;99.90
40504;DHT22;42292;49.048;8.374;2022-07-23T04:41:24;21.30;99.90
40504;DHT22;42292;49.048;8.374;2022-07-23T04:43:49;21.50;99.90
40504;DHT22;42292;49.048;8.374;2022-07-23T04:46:17;21.60;99.90
40504;DHT22;42292;49.048;8.374;2022-07-23T04:48:45;21.50;99.90
40504;DHT22;42292;49.048;8.374;2022-07-23T04:51:10;21.60;99.90
40504;DHT22;42292;49.048;8.374;2022-07-23T04:53:38;21.60;99.90
40504;DHT22;42292;49.048;8.374;2022-07-23T04:56:04;21.50;99.90
40504;DHT22;42292;49.048;8.374;2022-07-23T04:58:35;21.60;99.90
40504;DHT22;42292;49.048;8.374;2022-07-23T05:01:01;21.70;99.90
40504;DHT22;42292;49.048;8.374;2022-07-23T05:03:27;21.60;99.90
40504;DHT22;42292;49.048;8.374;2022-07-23T05:05:52;21.40;99.90
40504;DHT22;42292;49.048;8.374;2022-07-23T05:08:18;21.30;99.90
40504;DHT22;42292;49.048;8.374;2022-07-23T05:10:44;21.30;99.90
40504;DHT22;42292;49.048;8.374;2022-07-23T05:13:09;21.30;99.90
40504;DHT22;42292;49.048;8.374;2022-07-23T05:15:37;21.30;99.90
40504;DHT22;42292;49.048;8.374;2022-07-23T05:18:03;21.30;99.90
40504;DHT22;42292;49.048;8.374;2022-07-23T05:20:28;21.20;99.90
40504;DHT22;42292;49.048;8.374;2022-07-23T05:22:56;21.00;99.90
40504;DHT22;42292;49.048;8.374;2022-07-23T05:25:24;21.10;99.90
40504;DHT22;42292;49.048;8.374;2022-07-23T05:27:50;21.20;99.90
40504;DHT22;42292;49.048;8.374;2022-07-23T05:30:18;21.30;99.90
40504;DHT22;42292;49.048;8.374;2022-07-23T05:32:46;21.40;99.90
40504;DHT22;42292;49.048;8.374;2022-07-23T05:35:12;21.40;99.90
40504;DHT22;42292;49.048;8.374;2022-07-23T05:37:37;21.70;99.90
40504;DHT22;42292;49.048;8.374;2022-07-23T05:40:09;22.00;99.90
40504;DHT22;42292;49.048;8.374;2022-07-23T05:42:38;22.20;99.90
40504;DHT22;42292;49.048;8.374;2022-07-23T05:45:07;22.20;99.90
40504;DHT22;42292;49.048;8.374;2022-07-23T05:47:47;22.20;99.90
40504;DHT22;42292;49.048;8.374;2022-07-23T05:50:13;22.20;99.90
40504;DHT22;42292;49.048;8.374;2022-07-23T05:52:39;22.20;99.90
40504;DHT22;42292;49.048;8.374;2022-07-23T05:55:06;22.00;99.90
40504;DHT22;42292;49.048;8.374;2022-07-23T05:57:32;22.00;99.90
40504;DHT22;42292;49.048;8.374;2022-07-23T05:59:58;21.80;99.90
40504;DHT22;42292;49.048;8.374;2022-07-23T06:02:23;21.90;99.90
40504;DHT22;42292;49.048;8.374;2022-07-23T06:04:49;22.10;99.90
40504;DHT22;42292;49.048;8.374;2022-07-23T06:07:15;22.20;99.90
40504;DHT22;42292;49.048;8.374;2022-07-23T06:09:40;22.40;99.90
40504;DHT22;42292;49.048;8.374;2022-07-23T06:12:06;22.40;99.90
40504;DHT22;42292;49.048;8.374;2022-07-23T06:14:32;22.20;99.90
40504;DHT22;42292;49.048;8.374;2022-07-23T06:16:58;22.20;99.90
40504;DHT22;42292;49.048;8.374;2022-07-23T06:19:26;22.50;99.90
40504;DHT22;42292;49.048;8.374;2022-07-23T06:21:51;22.70;99.90
40504;DHT22;42292;49.048;8.374;2022-07-23T06:24:17;22.80;99.90
40504;DHT22;42292;49.048;8.374;2022-07-23T06:26:45;22.70;99.90
40504;DHT22;42292;49.048;8.374;2022-07-23T06:29:10;22.40;99.90
40504;DHT22;42292;49.048;8.374;2022-07-23T06:31:41;22.30;99.90
40504;DHT22;42292;49.048;8.374;2022-07-23T06:34:06;22.40;99.90
40504;DHT22;42292;49.048;8.374;2022-07-23T06:36:34;22.90;99.90
40504;DHT22;42292;49.048;8.374;2022-07-23T06:39:02;23.20;99.90
40504;DHT22;42292;49.048;8.374;2022-07-23T06:41:28;23.60;99.90
40504;DHT22;42292;49.048;8.374;2022-07-23T06:43:56;23.90;99.90
40504;DHT22;42292;49.048;8.374;2022-07-23T06:46:24;24.10;99.90
40504;DHT22;42292;49.048;8.374;2022-07-23T06:48:50;24.30;99.90
40504;DHT22;42292;49.048;8.374;2022-07-23T06:51:20;24.30;99.90
40504;DHT22;42292;49.048;8.374;2022-07-23T06:53:48;24.30;99.90
40504;DHT22;42292;49.048;8.374;2022-07-23T06:56:17;24.50;99.90
40504;DHT22;42292;49.048;8.374;2022-07-23T06:58:42;24.30;99.90
40504;DHT22;42292;49.048;8.374;2022-07-23T07:01:08;24.30;99.90
40504;DHT22;42292;49.048;8.374;2022-07-23T07:03:34;24.20;99.90
40504;DHT22;42292;49.048;8.374;2022-07-23T07:06:01;24.30;99.90
40504;DHT22;42292;49.048;8.374;2022-07-23T07:08:30;24.50;99.90
40504;DHT22;42292;49.048;8.374;2022-07-23T07:10:56;24.50;99.90
40504;DHT22;42292;49.048;8.374;2022-07-23T07:13:21;24.30;99.90
40504;DHT22;42292;49.048;8.374;2022-07-23T07:15:49;24.10;99.90
40504;DHT22;42292;49.048;8.374;2022-07-23T07:18:17;23.60;99.90
40504;DHT22;42292;49.048;8.374;2022-07-23T07:20:45;23.80;99.90
40504;DHT22;42292;49.048;8.374;2022-07-23T07:23:14;24.20;99.90
40504;DHT22;42292;49.048;8.374;2022-07-23T07:25:39;24.10;99.90
40504;DHT22;42292;49.048;8.374;2022-07-23T07:28:08;24.10;99.90
40504;DHT22;42292;49.048;8.374;2022-07-23T07:30:33;24.10;99.90
40504;DHT22;42292;49.048;8.374;2022-07-23T07:33:01;24.20;99.90
40504;DHT22;42292;49.048;8.374;2022-07-23T07:35:27;24.10;99.90
40504;DHT22;42292;49.048;8.374;2022-07-23T07:37:53;24.30;99.90
40504;DHT22;42292;49.048;8.374;2022-07-23T07:40:18;24.50;99.90
40504;DHT22;42292;49.048;8.374;2022-07-23T07:42:49;24.70;99.90
40504;DHT22;42292;49.048;8.374;2022-07-23T07:45:20;24.90;99.90
40504;DHT22;42292;49.048;8.374;2022-07-23T07:47:48;25.30;99.90
40504;DHT22;42292;49.048;8.374;2022-07-23T07:50:16;25.40;99.90
40504;DHT22;42292;49.048;8.374;2022-07-23T07:52:44;25.50;99.90
40504;DHT22;42292;49.048;8.374;2022-07-23T07:55:10;25.80;99.90
40504;DHT22;42292;49.048;8.374;2022-07-23T07:57:39;26.10;99.90
40504;DHT22;42292;49.048;8.374;2022-07-23T08:00:06;26.40;99.90
40504;DHT22;42292;49.048;8.374;2022-07-23T08:02:59;26.00;99.90
40504;DHT22;42292;49.048;8.374;2022-07-23T08:05:26;25.80;99.90
40504;DHT22;42292;49.048;8.374;2022-07-23T08:07:52;26.00;99.90
40504;DHT22;42292;49.048;8.374;2022-07-23T08:10:20;26.10;99.90
40504;DHT22;42292;49.048;8.374;2022-07-23T08:12:53;26.20;99.90
40504;DHT22;42292;49.048;8.374;2022-07-23T08:15:23;26.30;99.90
40504;DHT22;42292;49.048;8.374;2022-07-23T08:17:51;26.00;99.90
40504;DHT22;42292;49.048;8.374;2022-07-23T08:20:21;25.90;99.90
40504;DHT22;42292;49.048;8.374;2022-07-23T08:25:22;26.00;99.90
40504;DHT22;42292;49.048;8.374;2022-07-23T08:27:48;25.90;99.90
40504;DHT22;42292;49.048;8.374;2022-07-23T08:30:17;26.00;99.90
40504;DHT22;42292;49.048;8.374;2022-07-23T08:33:15;25.90;99.90
40504;DHT22;42292;49.048;8.374;2022-07-23T08:35:52;26.00;99.90
40504;DHT22;42292;49.048;8.374;2022-07-23T08:38:24;26.20;99.90
40504;DHT22;42292;49.048;8.374;2022-07-23T08:40:55;26.10;99.90
40504;DHT22;42292;49.048;8.374;2022-07-23T08:43:27;26.10;99.90
40504;DHT22;42292;49.048;8.374;2022-07-23T08:45:55;26.20;99.90
40504;DHT22;42292;49.048;8.374;2022-07-23T08:48:25;26.30;99.90
40504;DHT22;42292;49.048;8.374;2022-07-23T08:50:55;26.20;99.90
40504;DHT22;42292;49.048;8.374;2022-07-23T08:53:28;26.00;99.90
40504;DHT22;42292;49.048;8.374;2022-07-23T08:55:58;26.10;99.90
40504;DHT22;42292;49.048;8.374;2022-07-23T08:58:25;26.40;99.90
40504;DHT22;42292;49.048;8.374;2022-07-23T09:00:51;26.70;99.90
40504;DHT22;42292;49.048;8.374;2022-07-23T09:03:22;26.80;99.90
40504;DHT22;42292;49.048;8.374;2022-07-23T09:05:55;26.80;99.90
40504;DHT22;42292;49.048;8.374;2022-07-23T09:08:25;27.00;99.90
40504;DHT22;42292;49.048;8.374;2022-07-23T09:10:59;26.90;99.90
40504;DHT22;42292;49.048;8.374;2022-07-23T09:16:23;27.20;99.90
40504;DHT22;42292;49.048;8.374;2022-07-23T09:18:53;27.40;99.90
40504;DHT22;42292;49.048;8.374;2022-07-23T09:21:26;27.60;99.90
40504;DHT22;42292;49.048;8.374;2022-07-23T09:26:32;28.80;99.90
40504;DHT22;42292;49.048;8.374;2022-07-23T09:29:05;28.90;99.90
40504;DHT22;42292;49.048;8.374;2022-07-23T09:36:45;29.00;99.90
40504;DHT22;42292;49.048;8.374;2022-07-23T09:39:12;28.70;99.90
40504;DHT22;42292;49.048;8.374;2022-07-23T09:41:47;28.70;99.90
40504;DHT22;42292;49.048;8.374;2022-07-23T09:44:18;28.80;99.90
40504;DHT22;42292;49.048;8.374;2022-07-23T09:46:46;28.90;99.90
40504;DHT22;42292;49.048;8.374;2022-07-23T09:49:20;28.70;99.90
40504;DHT22;42292;49.048;8.374;2022-07-23T09:51:50;28.00;99.90
40504;DHT22;42292;49.048;8.374;2022-07-23T09:54:38;28.20;99.90
40504;DHT22;42292;49.048;8.374;2022-07-23T09:57:07;28.40;99.90
40504;DHT22;42292;49.048;8.374;2022-07-23T09:59:39;28.70;99.90
40504;DHT22;42292;49.048;8.374;2022-07-23T10:02:11;28.70;99.90
40504;DHT22;42292;49.048;8.374;2022-07-23T10:04:38;28.60;99.90
40504;DHT22;42292;49.048;8.374;2022-07-23T10:07:06;28.60;99.90
40504;DHT22;42292;49.048;8.374;2022-07-23T10:09:41;28.80;99.90
40504;DHT22;42292;49.048;8.374;2022-07-23T10:12:13;29.10;99.90
40504;DHT22;42292;49.048;8.374;2022-07-23T10:14:58;29.30;99.90
40504;DHT22;42292;49.048;8.374;2022-07-23T10:17:30;29.50;99.90
40504;DHT22;42292;49.048;8.374;2022-07-23T10:19:56;29.40;99.90
40504;DHT22;42292;49.048;8.374;2022-07-23T10:22:28;29.20;99.90
40504;DHT22;42292;49.048;8.374;2022-07-23T10:38:43;30.50;99.90
40504;DHT22;42292;49.048;8.374;2022-07-23T10:41:13;30.70;99.90
40504;DHT22;42292;49.048;8.374;2022-07-23T10:43:41;30.80;99.90
40504;DHT22;42292;49.048;8.374;2022-07-23T10:46:24;30.90;99.60
40504;DHT22;42292;49.048;8.374;2022-07-23T10:49:25;31.10;98.20
40504;DHT22;42292;49.048;8.374;2022-07-23T10:52:16;31.30;98.10
40504;DHT22;42292;49.048;8.374;2022-07-23T10:54:47;31.30;97.10
40504;DHT22;42292;49.048;8.374;2022-07-23T10:57:15;31.10;97.60
40504;DHT22;42292;49.048;8.374;2022-07-23T11:02:30;31.40;97.30
40504;DHT22;42292;49.048;8.374;2022-07-23T11:07:35;31.80;96.90
40504;DHT22;42292;49.048;8.374;2022-07-23T11:10:01;32.00;95.80
40504;DHT22;42292;49.048;8.374;2022-07-23T11:15:11;31.60;96.20
40504;DHT22;42292;49.048;8.374;2022-07-23T11:17:39;31.80;95.90
40504;DHT22;42292;49.048;8.374;2022-07-23T11:25:12;32.10;94.90
40504;DHT22;42292;49.048;8.374;2022-07-23T11:27:42;32.10;93.20
40504;DHT22;42292;49.048;8.374;2022-07-23T11:35:47;31.80;92.90
40504;DHT22;42292;49.048;8.374;2022-07-23T11:38:18;31.30;93.60
40504;DHT22;42292;49.048;8.374;2022-07-23T11:40:55;31.10;93.70
40504;DHT22;42292;49.048;8.374;2022-07-23T11:43:25;31.00;93.20
40504;DHT22;42292;49.048;8.374;2022-07-23T11:45:57;30.80;94.00
40504;DHT22;42292;49.048;8.374;2022-07-23T11:48:27;31.00;93.30
40504;DHT22;42292;49.048;8.374;2022-07-23T11:50:54;31.10;93.40
40504;DHT22;42292;49.048;8.374;2022-07-23T11:53:27;31.50;93.20
40504;DHT22;42292;49.048;8.374;2022-07-23T11:55:53;31.50;92.80
40504;DHT22;42292;49.048;8.374;2022-07-23T11:58:20;31.50;91.90
40504;DHT22;42292;49.048;8.374;2022-07-23T12:00:48;30.90;92.30
40504;DHT22;42292;49.048;8.374;2022-07-23T12:03:16;31.60;91.90
40504;DHT22;42292;49.048;8.374;2022-07-23T12:05:41;32.10;92.20
40504;DHT22;42292;49.048;8.374;2022-07-23T12:08:09;32.60;92.60
40504;DHT22;42292;49.048;8.374;2022-07-23T12:10:43;32.90;92.70
40504;DHT22;42292;49.048;8.374;2022-07-23T12:13:14;33.00;92.20
40504;DHT22;42292;49.048;8.374;2022-07-23T12:15:43;33.10;91.70
40504;DHT22;42292;49.048;8.374;2022-07-23T12:18:11;33.40;91.20
40504;DHT22;42292;49.048;8.374;2022-07-23T12:20:40;33.90;91.00
40504;DHT22;42292;49.048;8.374;2022-07-23T12:23:08;33.40;91.00
40504;DHT22;42292;49.048;8.374;2022-07-23T12:25:36;33.40;90.80
40504;DHT22;42292;49.048;8.374;2022-07-23T12:28:06;33.30;90.30
40504;DHT22;42292;49.048;8.374;2022-07-23T12:30:40;33.50;90.50
40504;DHT22;42292;49.048;8.374;2022-07-23T12:33:08;34.00;89.90
40504;DHT22;42292;49.048;8.374;2022-07-23T12:35:47;34.50;86.30
40504;DHT22;42292;49.048;8.374;2022-07-23T12:38:18;34.40;86.00
40504;DHT22;42292;49.048;8.374;2022-07-23T12:40:54;34.20;85.90
40504;DHT22;42292;49.048;8.374;2022-07-23T12:43:30;33.30;85.90
40504;DHT22;42292;49.048;8.374;2022-07-23T12:46:07;33.10;85.80
40504;DHT22;42292;49.048;8.374;2022-07-23T12:48:35;33.70;87.20
40504;DHT22;42292;49.048;8.374;2022-07-23T12:53:46;34.50;82.80
40504;DHT22;42292;49.048;8.374;2022-07-23T12:56:16;34.40;83.10
40504;DHT22;42292;49.048;8.374;2022-07-23T12:59:04;34.50;81.90
40504;DHT22;42292;49.048;8.374;2022-07-23T13:01:39;34.50;80.60
40504;DHT22;42292;49.048;8.374;2022-07-23T13:04:08;34.10;82.90
40504;DHT22;42292;49.048;8.374;2022-07-23T13:06:45;33.70;83.30
40504;DHT22;42292;49.048;8.374;2022-07-23T13:09:31;33.60;84.70
40504;DHT22;42292;49.048;8.374;2022-07-23T13:12:00;33.50;83.80
40504;DHT22;42292;49.048;8.374;2022-07-23T13:14:27;33.90;81.90
40504;DHT22;42292;49.048;8.374;2022-07-23T13:16:56;34.50;79.40
40504;DHT22;42292;49.048;8.374;2022-07-23T13:19:22;33.60;80.00
40504;DHT22;42292;49.048;8.374;2022-07-23T13:21:50;33.90;79.10
40504;DHT22;42292;49.048;8.374;2022-07-23T13:24:18;33.40;79.00
40504;DHT22;42292;49.048;8.374;2022-07-23T13:26:46;32.80;80.90
40504;DHT22;42292;49.048;8.374;2022-07-23T13:29:14;32.90;79.90
40504;DHT22;42292;49.048;8.374;2022-07-23T13:31:40;32.00;82.10
40504;DHT22;42292;49.048;8.374;2022-07-23T13:34:10;31.70;83.00
40504;DHT22;42292;49.048;8.374;2022-07-23T13:36:41;32.20;82.50
40504;DHT22;42292;49.048;8.374;2022-07-23T13:39:11;32.90;80.50
40504;DHT22;42292;49.048;8.374;2022-07-23T13:41:37;32.90;79.00
40504;DHT22;42292;49.048;8.374;2022-07-23T13:44:06;33.40;79.50
40504;DHT22;42292;49.048;8.374;2022-07-23T13:46:31;33.70;77.60
40504;DHT22;42292;49.048;8.374;2022-07-23T13:48:57;33.70;79.20
40504;DHT22;42292;49.048;8.374;2022-07-23T13:51:25;34.40;77.10
40504;DHT22;42292;49.048;8.374;2022-07-23T13:53:51;34.40;75.90
40504;DHT22;42292;49.048;8.374;2022-07-23T13:56:19;35.10;75.80
40504;DHT22;42292;49.048;8.374;2022-07-23T13:58:47;34.90;74.60
40504;DHT22;42292;49.048;8.374;2022-07-23T14:01:15;35.20;74.40
40504;DHT22;42292;49.048;8.374;2022-07-23T14:03:41;35.30;74.70
40504;DHT22;42292;49.048;8.374;2022-07-23T14:06:07;35.40;74.40
40504;DHT22;42292;49.048;8.374;2022-07-23T14:08:32;35.70;73.90
40504;DHT22;42292;49.048;8.374;2022-07-23T14:11:00;37.90;69.60
40504;DHT22;42292;49.048;8.374;2022-07-23T14:13:28;38.90;66.90
40504;DHT22;42292;49.048;8.374;2022-07-23T14:15:56;40.10;64.70
40504;DHT22;42292;49.048;8.374;2022-07-23T14:18:22;40.70;60.60
40504;DHT22;42292;49.048;8.374;2022-07-23T14:20:50;42.70;59.10
40504;DHT22;42292;49.048;8.374;2022-07-23T14:23:17;44.20;56.40
40504;DHT22;42292;49.048;8.374;2022-07-23T14:25:43;44.70;53.70
40504;DHT22;42292;49.048;8.374;2022-07-23T14:28:09;45.00;53.20
40504;DHT22;42292;49.048;8.374;2022-07-23T14:30:34;44.50;53.10
40504;DHT22;42292;49.048;8.374;2022-07-23T14:33:03;42.80;54.10
40504;DHT22;42292;49.048;8.374;2022-07-23T14:35:31;40.50;57.00
40504;DHT22;42292;49.048;8.374;2022-07-23T14:37:57;38.10;61.20
40504;DHT22;42292;49.048;8.374;2022-07-23T14:40:24;35.90;65.20
40504;DHT22;42292;49.048;8.374;2022-07-23T14:42:50;34.70;69.30
40504;DHT22;42292;49.048;8.374;2022-07-23T14:45:15;33.70;72.00
40504;DHT22;42292;49.048;8.374;2022-07-23T14:47:41;32.90;71.30
40504;DHT22;42292;49.048;8.374;2022-07-23T14:50:09;32.80;72.90
40504;DHT22;42292;49.048;8.374;2022-07-23T14:52:34;33.70;71.30
40504;DHT22;42292;49.048;8.374;2022-07-23T14:55:00;35.50;67.10
40504;DHT22;42292;49.048;8.374;2022-07-23T14:57:26;36.00;66.20
40504;DHT22;42292;49.048;8.374;2022-07-23T14:59:54;35.90;66.40
40504;DHT22;42292;49.048;8.374;2022-07-23T15:02:19;37.50;62.80
40504;DHT22;42292;49.048;8.374;2022-07-23T15:04:45;38.90;59.10
40504;DHT22;42292;49.048;8.374;2022-07-23T15:07:13;38.80;59.10
40504;DHT22;42292;49.048;8.374;2022-07-23T15:09:39;40.20;57.20
40504;DHT22;42292;49.048;8.374;2022-07-23T15:12:07;41.10;55.40
40504;DHT22;42292;49.048;8.374;2022-07-23T15:14:35;43.90;52.40
40504;DHT22;42292;49.048;8.374;2022-07-23T15:17:00;43.00;52.80
40504;DHT22;42292;49.048;8.374;2022-07-23T15:19:26;42.80;52.10
40504;DHT22;42292;49.048;8.374;2022-07-23T15:21:51;41.10;53.10
40504;DHT22;42292;49.048;8.374;2022-07-23T15:24:17;40.00;56.10
40504;DHT22;42292;49.048;8.374;2022-07-23T15:26:43;39.10;59.40
40504;DHT22;42292;49.048;8.374;2022-07-23T15:29:09;38.00;62.20
40504;DHT22;42292;49.048;8.374;2022-07-23T15:31:37;37.50;64.10
40504;DHT22;42292;49.048;8.374;2022-07-23T15:34:02;37.20;65.00
40504;DHT22;42292;49.048;8.374;2022-07-23T15:36:30;38.40;64.40
40504;DHT22;42292;49.048;8.374;2022-07-23T15:38:56;39.00;61.10
40504;DHT22;42292;49.048;8.374;2022-07-23T15:41:24;37.90;63.30
40504;DHT22;42292;49.048;8.374;2022-07-23T15:43:50;36.40;66.20
40504;DHT22;42292;49.048;8.374;2022-07-23T15:46:22;35.10;69.10
40504;DHT22;42292;49.048;8.374;2022-07-23T15:48:48;34.50;71.10
40504;DHT22;42292;49.048;8.374;2022-07-23T15:51:14;34.00;72.00
40504;DHT22;42292;49.048;8.374;2022-07-23T15:53:41;34.50;71.80
40504;DHT22;42292;49.048;8.374;2022-07-23T15:56:08;37.20;66.90
40504;DHT22;42292;49.048;8.374;2022-07-23T15:58:34;38.90;63.00
40504;DHT22;42292;49.048;8.374;2022-07-23T16:00:59;40.80;59.10
40504;DHT22;42292;49.048;8.374;2022-07-23T16:03:31;40.60;58.90
40504;DHT22;42292;49.048;8.374;2022-07-23T16:05:57;40.10;59.00
40504;DHT22;42292;49.048;8.374;2022-07-23T16:08:25;38.80;60.80
40504;DHT22;42292;49.048;8.374;2022-07-23T16:10:51;37.70;63.10
40504;DHT22;42292;49.048;8.374;2022-07-23T16:13:24;36.60;64.90
40504;DHT22;42292;49.048;8.374;2022-07-23T16:15:52;36.30;65.70
40504;DHT22;42292;49.048;8.374;2022-07-23T16:18:21;35.60;65.80
40504;DHT22;42292;49.048;8.374;2022-07-23T16:20:48;35.90;67.30
40504;DHT22;42292;49.048;8.374;2022-07-23T16:23:17;37.60;64.50
40504;DHT22;42292;49.048;8.374;2022-07-23T16:25:42;39.50;60.60